sensor_id;sensor_type;location;lat;lon;timestamp;temperature;humidity
1796;DHT22;895;48.230;11.678;2022-09-09T00:00:24;16.50;94.90
1796;DHT22;895;48.230;11.678;2022-09-09T00:02:58;16.40;95.90
1796;DHT22;895;48.230;11.678;2022-09-09T00:05:31;16.40;96.20
1796;DHT22;895;48.230;11.678;2022-09-09T00:08:02;16.30;96.40
1796;DHT22;895;48.230;11.678;2022-09-09T00:10:33;16.20;96.30
1796;DHT22;895;48.230;11.678;2022-09-09T00:13:09;16.20;97.30
1796;DHT22;895;48.230;11.678;2022-09-09T00:15:51;16.10;98.20
1796;DHT22;895;48.230;11.678;2022-09-09T00:18:25;16.00;99.00
1796;DHT22;895;48.230;11.678;2022-09-09T00:20:58;16.00;98.90
1796;DHT22;895;48.230;11.678;2022-09-09T00:23:31;16.00;98.80
1796;DHT22;895;48.230;11.678;2022-09-09T00:26:06;15.90;99.30
1796;DHT22;895;48.230;11.678;2022-09-09T00:28:38;15.90;99.60
1796;DHT22;895;48.230;11.678;2022-09-09T00:31:12;15.90;99.60
1796;DHT22;895;48.230;11.678;2022-09-09T00:33:39;15.90;99.50
1796;DHT22;895;48.230;11.678;2022-09-09T00:36:13;15.90;99.60
1796;DHT22;895;48.230;11.678;2022-09-09T00:38:43;15.90;99.60
1796;DHT22;895;48.230;11.678;2022-09-09T00:41:18;15.90;99.40
1796;DHT22;895;48.230;11.678;2022-09-09T00:43:53;16.00;99.40
1796;DHT22;895;48.230;11.678;2022-09-09T00:46:52;16.00;99.50
1796;DHT22;895;48.230;11.678;2022-09-09T00:49:26;16.00;99.40
1796;DHT22;895;48.230;11.678;2022-09-09T00:52:02;16.00;99.40
1796;DHT22;895;48.230;11.678;2022-09-09T00:54:40;16.00;99.40
1796;DHT22;895;48.230;11.678;2022-09-09T00:57:23;16.00;99.30
1796;DHT22;895;48.230;11.678;2022-09-09T00:59:58;16.00;99.30
1796;DHT22;895;48.230;11.678;2022-09-09T01:02:30;16.00;99.30
1796;DHT22;895;48.230;11.678;2022-09-09T01:05:04;16.00;99.30
1796;DHT22;895;48.230;11.678;2022-09-09T01:07:33;15.90;99.20
1796;DHT22;895;48.230;11.678;2022-09-09T01:10:04;16.00;99.20
1796;DHT22;895;48.230;11.678;2022-09-09T01:12:40;15.90;99.10
1796;DHT22;895;48.230;11.678;2022-09-09T01:15:10;15.90;99.20
1796;DHT22;895;48.230;11.678;2022-09-09T01:17:46;15.80;99.10
1796;DHT22;895;48.230;11.678;2022-09-09T01:20:18;15.80;99.20
1796;DHT22;895;48.230;11.678;2022-09-09T01:22:57;15.80;99.20
1796;DHT22;895;48.230;11.678;2022-09-09T01:28:22;15.90;99.40
1796;DHT22;895;48.230;11.678;2022-09-09T01:30:49;15.90;99.30
1796;DHT22;895;48.230;11.678;2022-09-09T01:33:17;15.90;99.30
1796;DHT22;895;48.230;11.678;2022-09-09T01:35:48;15.90;99.30
1796;DHT22;895;48.230;11.678;2022-09-09T01:38:17;16.00;99.40
1796;DHT22;895;48.230;11.678;2022-09-09T01:40:44;16.00;99.20
1796;DHT22;895;48.230;11.678;2022-09-09T01:43:11;16.00;99.20
1796;DHT22;895;48.230;11.678;2022-09-09T01:45:41;16.10;99.50
1796;DHT22;895;48.230;11.678;2022-09-09T01:48:09;16.10;99.30
1796;DHT22;895;48.230;11.678;2022-09-09T01:50:35;16.10;99.20
1796;DHT22;895;48.230;11.678;2022-09-09T01:53:03;16.10;99.20
1796;DHT22;895;48.230;11.678;2022-09-09T01:55:33;16.10;99.20
1796;DHT22;895;48.230;11.678;2022-09-09T01:58:11;16.10;99.20
1796;DHT22;895;48.230;11.678;2022-09-09T02:00:48;16.10;99.20
1796;DHT22;895;48.230;11.678;2022-09-09T02:03:23;16.10;99.20
1796;DHT22;895;48.230;11.678;2022-09-09T02:05:58;16.10;99.10
1796;DHT22;895;48.230;11.678;2022-09-09T02:08:31;16.10;99.20
1796;DHT22;895;48.230;11.678;2022-09-09T02:11:03;16.10;99.10
1796;DHT22;895;48.230;11.678;2022-09-09T02:13:34;16.00;99.40
1796;DHT22;895;48.230;11.678;2022-09-09T02:16:07;16.00;99.10
1796;DHT22;895;48.230;11.678;2022-09-09T02:18:36;16.00;99.10
1796;DHT22;895;48.230;11.678;2022-09-09T02:21:05;16.00;99.10
1796;DHT22;895;48.230;11.678;2022-09-09T02:23:34;16.00;99.20
1796;DHT22;895;48.230;11.678;2022-09-09T02:26:02;16.00;99.20
1796;DHT22;895;48.230;11.678;2022-09-09T02:28:32;16.00;99.20
1796;DHT22;895;48.230;11.678;2022-09-09T02:31:00;16.00;99.20
1796;DHT22;895;48.230;11.678;2022-09-09T02:33:33;16.00;99.20
1796;DHT22;895;48.230;11.678;2022-09-09T02:36:02;16.00;99.10
1796;DHT22;895;48.230;11.678;2022-09-09T02:38:35;15.90;99.10
1796;DHT22;895;48.230;11.678;2022-09-09T02:41:05;15.90;99.20
1796;DHT22;895;48.230;11.678;2022-09-09T02:43:33;15.90;99.20
1796;DHT22;895;48.230;11.678;2022-09-09T02:46:07;15.90;99.20
1796;DHT22;895;48.230;11.678;2022-09-09T02:48:40;15.90;99.30
1796;DHT22;895;48.230;11.678;2022-09-09T02:51:16;15.90;99.30
1796;DHT22;895;48.230;11.678;2022-09-09T02:53:49;15.90;99.40
1796;DHT22;895;48.230;11.678;2022-09-09T02:56:22;15.90;99.20
1796;DHT22;895;48.230;11.678;2022-09-09T02:58:49;15.90;99.10
1796;DHT22;895;48.230;11.678;2022-09-09T03:01:17;15.90;98.60
1796;DHT22;895;48.230;11.678;2022-09-09T03:03:45;15.90;98.50
1796;DHT22;895;48.230;11.678;2022-09-09T03:06:12;15.90;98.60
1796;DHT22;895;48.230;11.678;2022-09-09T03:08:40;16.00;98.60
1796;DHT22;895;48.230;11.678;2022-09-09T03:11:07;15.80;98.60
1796;DHT22;895;48.230;11.678;2022-09-09T03:13:35;15.90;98.60
1796;DHT22;895;48.230;11.678;2022-09-09T03:16:03;15.80;98.60
1796;DHT22;895;48.230;11.678;2022-09-09T03:18:31;15.80;98.60
1796;DHT22;895;48.230;11.678;2022-09-09T03:20:59;15.80;98.70
1796;DHT22;895;48.230;11.678;2022-09-09T03:23:26;15.80;98.70
1796;DHT22;895;48.230;11.678;2022-09-09T03:25:53;15.80;98.70
1796;DHT22;895;48.230;11.678;2022-09-09T03:28:22;15.80;98.80
1796;DHT22;895;48.230;11.678;2022-09-09T03:30:58;15.80;98.80
1796;DHT22;895;48.230;11.678;2022-09-09T03:33:25;15.90;98.90
1796;DHT22;895;48.230;11.678;2022-09-09T03:35:52;15.80;98.90
1796;DHT22;895;48.230;11.678;2022-09-09T03:38:20;15.80;98.90
1796;DHT22;895;48.230;11.678;2022-09-09T03:40:50;15.80;99.00
1796;DHT22;895;48.230;11.678;2022-09-09T03:43:20;15.80;99.00
1796;DHT22;895;48.230;11.678;2022-09-09T03:45:48;15.80;99.10
1796;DHT22;895;48.230;11.678;2022-09-09T03:48:15;15.80;99.10
1796;DHT22;895;48.230;11.678;2022-09-09T03:50:45;15.90;99.20
1796;DHT22;895;48.230;11.678;2022-09-09T03:53:11;15.90;99.20
1796;DHT22;895;48.230;11.678;2022-09-09T03:55:43;15.90;99.30
1796;DHT22;895;48.230;11.678;2022-09-09T03:58:11;15.90;99.60
1796;DHT22;895;48.230;11.678;2022-09-09T04:00:38;15.90;99.40
1796;DHT22;895;48.230;11.678;2022-09-09T04:03:07;16.00;99.40
1796;DHT22;895;48.230;11.678;2022-09-09T04:05:34;16.00;99.50
1796;DHT22;895;48.230;11.678;2022-09-09T04:08:06;16.00;99.50
1796;DHT22;895;48.230;11.678;2022-09-09T04:10:33;16.00;99.50
1796;DHT22;895;48.230;11.678;2022-09-09T04:13:02;16.00;99.50
1796;DHT22;895;48.230;11.678;2022-09-09T04:15:29;16.10;99.60
1796;DHT22;895;48.230;11.678;2022-09-09T04:17:56;16.10;99.60
1796;DHT22;895;48.230;11.678;2022-09-09T04:20:23;16.10;99.60
1796;DHT22;895;48.230;11.678;2022-09-09T04:22:49;16.20;99.70
1796;DHT22;895;48.230;11.678;2022-09-09T04:25:16;16.20;99.70
1796;DHT22;895;48.230;11.678;2022-09-09T04:27:43;16.20;99.60
1796;DHT22;895;48.230;11.678;2022-09-09T04:30:11;16.20;99.60
1796;DHT22;895;48.230;11.678;2022-09-09T04:32:38;16.30;99.70
1796;DHT22;895;48.230;11.678;2022-09-09T04:35:05;16.30;99.60
1796;DHT22;895;48.230;11.678;2022-09-09T04:37:32;16.30;99.60
1796;DHT22;895;48.230;11.678;2022-09-09T04:39:59;16.30;99.70
1796;DHT22;895;48.230;11.678;2022-09-09T04:42:27;16.30;99.70
1796;DHT22;895;48.230;11.678;2022-09-09T04:44:54;16.30;99.70
1796;DHT22;895;48.230;11.678;2022-09-09T04:47:22;16.20;99.60
1796;DHT22;895;48.230;11.678;2022-09-09T04:49:48;16.20;99.70
1796;DHT22;895;48.230;11.678;2022-09-09T04:52:15;16.30;99.70
1796;DHT22;895;48.230;11.678;2022-09-09T04:54:42;16.10;99.60
1796;DHT22;895;48.230;11.678;2022-09-09T04:57:10;16.10;99.70
1796;DHT22;895;48.230;11.678;2022-09-09T04:59:37;16.10;99.70
1796;DHT22;895;48.230;11.678;2022-09-09T05:02:04;16.10;99.80
1796;DHT22;895;48.230;11.678;2022-09-09T05:04:33;16.00;99.80
1796;DHT22;895;48.230;11.678;2022-09-09T05:06:59;16.00;99.90
1796;DHT22;895;48.230;11.678;2022-09-09T05:09:26;16.00;99.90
1796;DHT22;895;48.230;11.678;2022-09-09T05:11:53;16.00;99.90
1796;DHT22;895;48.230;11.678;2022-09-09T05:14:20;16.00;99.90
1796;DHT22;895;48.230;11.678;2022-09-09T05:16:46;16.00;99.90
1796;DHT22;895;48.230;11.678;2022-09-09T05:19:15;16.00;99.90
1796;DHT22;895;48.230;11.678;2022-09-09T05:21:45;16.00;99.90
1796;DHT22;895;48.230;11.678;2022-09-09T05:24:12;16.10;99.90
1796;DHT22;895;48.230;11.678;2022-09-09T05:26:39;16.10;99.90
1796;DHT22;895;48.230;11.678;2022-09-09T05:29:05;16.10;99.90
1796;DHT22;895;48.230;11.678;2022-09-09T05:31:33;16.10;99.90
1796;DHT22;895;48.230;11.678;2022-09-09T05:34:00;16.10;99.90
1796;DHT22;895;48.230;11.678;2022-09-09T05:36:27;16.10;99.90
1796;DHT22;895;48.230;11.678;2022-09-09T05:38:55;16.20;99.90
1796;DHT22;895;48.230;11.678;2022-09-09T05:41:22;16.20;99.90
1796;DHT22;895;48.230;11.678;2022-09-09T05:43:49;16.20;99.90
1796;DHT22;895;48.230;11.678;2022-09-09T05:46:17;16.20;99.90
1796;DHT22;895;48.230;11.678;2022-09-09T05:48:44;16.20;99.90
1796;DHT22;895;48.230;11.678;2022-09-09T05:51:13;16.30;99.90
1796;DHT22;895;48.230;11.678;2022-09-09T05:53:41;16.30;99.90
1796;DHT22;895;48.230;11.678;2022-09-09T05:56:11;16.30;99.90
1796;DHT22;895;48.230;11.678;2022-09-09T05:58:39;16.40;99.90
1796;DHT22;895;48.230;11.678;2022-09-09T06:01:10;16.50;99.90
1796;DHT22;895;48.230;11.678;2022-09-09T06:03:38;16.40;99.90
1796;DHT22;895;48.230;11.678;2022-09-09T06:06:07;16.40;99.90
1796;DHT22;895;48.230;11.678;2022-09-09T06:08:36;16.40;99.90
1796;DHT22;895;48.230;11.678;2022-09-09T06:11:05;16.50;99.90
1796;DHT22;895;48.230;11.678;2022-09-09T06:13:34;16.60;99.90
1796;DHT22;895;48.230;11.678;2022-09-09T06:16:03;16.60;99.90
1796;DHT22;895;48.230;11.678;2022-09-09T06:18:29;16.60;99.90
1796;DHT22;895;48.230;11.678;2022-09-09T06:20:57;16.70;99.90
1796;DHT22;895;48.230;11.678;2022-09-09T06:23:26;16.80;99.90
1796;DHT22;895;48.230;11.678;2022-09-09T06:26:01;16.90;99.90
1796;DHT22;895;48.230;11.678;2022-09-09T06:28:29;17.00;99.90
1796;DHT22;895;48.230;11.678;2022-09-09T06:30:59;17.10;99.90
1796;DHT22;895;48.230;11.678;2022-09-09T06:33:26;17.20;99.90
1796;DHT22;895;48.230;11.678;2022-09-09T06:35:53;17.20;99.90
1796;DHT22;895;48.230;11.678;2022-09-09T06:38:20;17.20;99.90
1796;DHT22;895;48.230;11.678;2022-09-09T06:40:51;17.30;99.90
1796;DHT22;895;48.230;11.678;2022-09-09T06:43:18;17.20;99.90
1796;DHT22;895;48.230;11.678;2022-09-09T06:45:53;17.20;99.90
1796;DHT22;895;48.230;11.678;2022-09-09T06:48:21;17.10;99.90
1796;DHT22;895;48.230;11.678;2022-09-09T06:50:48;17.10;99.90
1796;DHT22;895;48.230;11.678;2022-09-09T06:53:16;17.20;99.90
1796;DHT22;895;48.230;11.678;2022-09-09T06:55:44;17.20;99.90
1796;DHT22;895;48.230;11.678;2022-09-09T06:58:11;17.20;99.90
1796;DHT22;895;48.230;11.678;2022-09-09T07:00:38;17.30;99.90
1796;DHT22;895;48.230;11.678;2022-09-09T07:03:04;17.40;99.90
1796;DHT22;895;48.230;11.678;2022-09-09T07:05:33;17.40;99.90
1796;DHT22;895;48.230;11.678;2022-09-09T07:07:59;17.60;99.90
1796;DHT22;895;48.230;11.678;2022-09-09T07:10:26;17.70;99.90
1796;DHT22;895;48.230;11.678;2022-09-09T07:12:53;17.80;99.90
1796;DHT22;895;48.230;11.678;2022-09-09T07:15:20;17.90;99.90
1796;DHT22;895;48.230;11.678;2022-09-09T07:17:47;18.00;99.90
1796;DHT22;895;48.230;11.678;2022-09-09T07:20:14;18.10;99.90
1796;DHT22;895;48.230;11.678;2022-09-09T07:22:42;18.20;99.90
1796;DHT22;895;48.230;11.678;2022-09-09T07:25:09;18.20;99.90
1796;DHT22;895;48.230;11.678;2022-09-09T07:27:36;18.20;99.90
1796;DHT22;895;48.230;11.678;2022-09-09T07:30:03;18.20;99.90
1796;DHT22;895;48.230;11.678;2022-09-09T07:32:30;18.10;99.90
1796;DHT22;895;48.230;11.678;2022-09-09T07:34:57;18.10;99.90
1796;DHT22;895;48.230;11.678;2022-09-09T07:37:23;18.00;99.90
1796;DHT22;895;48.230;11.678;2022-09-09T07:39:52;18.00;99.90
1796;DHT22;895;48.230;11.678;2022-09-09T07:42:18;18.00;99.90
1796;DHT22;895;48.230;11.678;2022-09-09T07:44:45;18.00;99.90
1796;DHT22;895;48.230;11.678;2022-09-09T07:47:12;18.00;99.90
1796;DHT22;895;48.230;11.678;2022-09-09T07:49:39;18.00;99.90
1796;DHT22;895;48.230;11.678;2022-09-09T07:52:06;18.00;99.90
1796;DHT22;895;48.230;11.678;2022-09-09T07:54:32;18.00;99.90
1796;DHT22;895;48.230;11.678;2022-09-09T07:57:00;18.00;99.90
1796;DHT22;895;48.230;11.678;2022-09-09T07:59:29;18.10;99.90
1796;DHT22;895;48.230;11.678;2022-09-09T08:01:56;18.30;99.90
1796;DHT22;895;48.230;11.678;2022-09-09T08:04:24;18.40;99.90
1796;DHT22;895;48.230;11.678;2022-09-09T08:06:54;18.60;99.90
1796;DHT22;895;48.230;11.678;2022-09-09T08:09:22;18.70;99.90
1796;DHT22;895;48.230;11.678;2022-09-09T08:11:50;18.80;99.90
1796;DHT22;895;48.230;11.678;2022-09-09T08:14:19;18.90;99.90
1796;DHT22;895;48.230;11.678;2022-09-09T08:16:48;19.00;99.90
1796;DHT22;895;48.230;11.678;2022-09-09T08:19:14;19.00;99.90
1796;DHT22;895;48.230;11.678;2022-09-09T08:21:42;19.10;99.90
1796;DHT22;895;48.230;11.678;2022-09-09T08:24:10;19.20;99.90
1796;DHT22;895;48.230;11.678;2022-09-09T08:26:39;19.30;99.90
1796;DHT22;895;48.230;11.678;2022-09-09T08:29:07;19.30;99.90
1796;DHT22;895;48.230;11.678;2022-09-09T08:31:38;19.30;99.90
1796;DHT22;895;48.230;11.678;2022-09-09T08:34:06;19.30;99.90
1796;DHT22;895;48.230;11.678;2022-09-09T08:36:35;19.30;99.90
1796;DHT22;895;48.230;11.678;2022-09-09T08:39:04;19.20;99.90
1796;DHT22;895;48.230;11.678;2022-09-09T08:41:43;19.30;99.90
1796;DHT22;895;48.230;11.678;2022-09-09T08:44:22;19.30;99.90
1796;DHT22;895;48.230;11.678;2022-09-09T08:46:58;19.20;99.90
1796;DHT22;895;48.230;11.678;2022-09-09T08:49:55;19.20;99.90
1796;DHT22;895;48.230;11.678;2022-09-09T08:52:28;19.30;99.90
1796;DHT22;895;48.230;11.678;2022-09-09T08:54:58;19.30;99.90
1796;DHT22;895;48.230;11.678;2022-09-09T08:57:27;19.40;99.90
1796;DHT22;895;48.230;11.678;2022-09-09T08:59:56;19.40;99.90
1796;DHT22;895;48.230;11.678;2022-09-09T09:02:31;19.50;99.90
1796;DHT22;895;48.230;11.678;2022-09-09T09:05:11;19.40;99.90
1796;DHT22;895;48.230;11.678;2022-09-09T09:07:52;19.50;99.90
1796;DHT22;895;48.230;11.678;2022-09-09T09:10:33;19.50;99.90
1796;DHT22;895;48.230;11.678;2022-09-09T09:13:02;19.40;99.90
1796;DHT22;895;48.230;11.678;2022-09-09T09:15:32;19.40;99.90
1796;DHT22;895;48.230;11.678;2022-09-09T09:18:04;19.40;99.90
1796;DHT22;895;48.230;11.678;2022-09-09T09:20:36;19.40;99.90
1796;DHT22;895;48.230;11.678;2022-09-09T09:23:16;19.40;99.90
1796;DHT22;895;48.230;11.678;2022-09-09T09:25:45;19.40;99.90
1796;DHT22;895;48.230;11.678;2022-09-09T09:28:16;19.40;99.90
1796;DHT22;895;48.230;11.678;2022-09-09T09:30:48;19.60;99.90
1796;DHT22;895;48.230;11.678;2022-09-09T09:33:21;19.50;99.90
1796;DHT22;895;48.230;11.678;2022-09-09T09:35:49;19.60;99.90
1796;DHT22;895;48.230;11.678;2022-09-09T09:38:20;19.80;99.90
1796;DHT22;895;48.230;11.678;2022-09-09T09:40:51;20.00;99.90
1796;DHT22;895;48.230;11.678;2022-09-09T09:43:23;20.40;99.90
1796;DHT22;895;48.230;11.678;2022-09-09T09:45:50;20.70;99.90
1796;DHT22;895;48.230;11.678;2022-09-09T09:48:18;20.90;99.90
1796;DHT22;895;48.230;11.678;2022-09-09T09:50:50;21.00;99.90
1796;DHT22;895;48.230;11.678;2022-09-09T09:53:21;21.00;99.90
1796;DHT22;895;48.230;11.678;2022-09-09T09:55:54;21.10;99.90
1796;DHT22;895;48.230;11.678;2022-09-09T09:58:21;20.90;99.90
1796;DHT22;895;48.230;11.678;2022-09-09T10:00:48;20.90;99.90
1796;DHT22;895;48.230;11.678;2022-09-09T10:03:24;20.80;99.90
1796;DHT22;895;48.230;11.678;2022-09-09T10:05:52;20.80;99.90
1796;DHT22;895;48.230;11.678;2022-09-09T10:08:19;20.70;99.90
1796;DHT22;895;48.230;11.678;2022-09-09T10:11:06;20.70;99.90
1796;DHT22;895;48.230;11.678;2022-09-09T10:13:47;20.70;99.90
1796;DHT22;895;48.230;11.678;2022-09-09T10:16:28;20.60;99.90
1796;DHT22;895;48.230;11.678;2022-09-09T10:19:02;20.60;99.90
1796;DHT22;895;48.230;11.678;2022-09-09T10:25:01;20.50;99.90
1796;DHT22;895;48.230;11.678;2022-09-09T10:27:38;20.50;99.90
1796;DHT22;895;48.230;11.678;2022-09-09T10:30:14;20.60;99.90
1796;DHT22;895;48.230;11.678;2022-09-09T10:32:48;20.60;99.90
1796;DHT22;895;48.230;11.678;2022-09-09T10:35:33;20.60;99.90
1796;DHT22;895;48.230;11.678;2022-09-09T10:38:17;20.50;99.90
1796;DHT22;895;48.230;11.678;2022-09-09T10:40:58;20.50;99.90
1796;DHT22;895;48.230;11.678;2022-09-09T10:43:40;20.50;99.90
1796;DHT22;895;48.230;11.678;2022-09-09T10:46:13;20.50;99.90
1796;DHT22;895;48.230;11.678;2022-09-09T10:48:54;20.50;99.90
1796;DHT22;895;48.230;11.678;2022-09-09T10:51:31;20.60;99.90
1796;DHT22;895;48.230;11.678;2022-09-09T10:54:12;20.60;99.90
1796;DHT22;895;48.230;11.678;2022-09-09T10:56:44;20.70;99.90
1796;DHT22;895;48.230;11.678;2022-09-09T10:59:17;20.80;99.90
1796;DHT22;895;48.230;11.678;2022-09-09T11:01:51;20.90;99.90
1796;DHT22;895;48.230;11.678;2022-09-09T11:04:22;21.00;99.90
1796;DHT22;895;48.230;11.678;2022-09-09T11:06:54;21.20;99.90
1796;DHT22;895;48.230;11.678;2022-09-09T11:09:24;21.40;99.90
1796;DHT22;895;48.230;11.678;2022-09-09T11:11:54;21.50;99.90
1796;DHT22;895;48.230;11.678;2022-09-09T11:14:26;21.60;99.90
1796;DHT22;895;48.230;11.678;2022-09-09T11:16:57;21.60;99.90
1796;DHT22;895;48.230;11.678;2022-09-09T11:19:28;21.60;99.90
1796;DHT22;895;48.230;11.678;2022-09-09T11:21:59;21.80;99.90
1796;DHT22;895;48.230;11.678;2022-09-09T11:24:31;22.00;99.90
1796;DHT22;895;48.230;11.678;2022-09-09T11:27:02;22.30;99.90
1796;DHT22;895;48.230;11.678;2022-09-09T11:30:02;22.40;99.90
1796;DHT22;895;48.230;11.678;2022-09-09T11:32:49;23.20;99.90
1796;DHT22;895;48.230;11.678;2022-09-09T11:35:33;23.80;99.90
1796;DHT22;895;48.230;11.678;2022-09-09T11:38:15;25.50;99.90
1796;DHT22;895;48.230;11.678;2022-09-09T11:40:44;27.90;99.90
1796;DHT22;895;48.230;11.678;2022-09-09T11:43:14;29.90;99.90
1796;DHT22;895;48.230;11.678;2022-09-09T11:45:51;32.30;99.20
1796;DHT22;895;48.230;11.678;2022-09-09T11:48:23;34.40;95.30
1796;DHT22;895;48.230;11.678;2022-09-09T11:50:59;35.40;90.10
1796;DHT22;895;48.230;11.678;2022-09-09T11:53:27;35.80;83.50
1796;DHT22;895;48.230;11.678;2022-09-09T11:56:11;35.20;78.10
1796;DHT22;895;48.230;11.678;2022-09-09T11:58:54;33.70;76.30
1796;DHT22;895;48.230;11.678;2022-09-09T12:01:36;31.80;77.40
1796;DHT22;895;48.230;11.678;2022-09-09T12:07:04;28.80;81.10
1796;DHT22;895;48.230;11.678;2022-09-09T12:09:49;28.00;84.80
1796;DHT22;895;48.230;11.678;2022-09-09T12:12:28;27.90;85.90
1796;DHT22;895;48.230;11.678;2022-09-09T12:14:58;27.80;86.60
1796;DHT22;895;48.230;11.678;2022-09-09T12:17:27;27.90;87.10
1796;DHT22;895;48.230;11.678;2022-09-09T12:20:03;28.30;90.20
1796;DHT22;895;48.230;11.678;2022-09-09T12:22:41;29.00;85.20
1796;DHT22;895;48.230;11.678;2022-09-09T12:25:21;28.50;81.80
1796;DHT22;895;48.230;11.678;2022-09-09T12:28:00;27.70;81.40
1796;DHT22;895;48.230;11.678;2022-09-09T12:30:32;26.80;81.70
1796;DHT22;895;48.230;11.678;2022-09-09T12:33:02;26.00;83.00
1796;DHT22;895;48.230;11.678;2022-09-09T12:35:29;25.50;84.50
1796;DHT22;895;48.230;11.678;2022-09-09T12:37:59;25.20;85.50
1796;DHT22;895;48.230;11.678;2022-09-09T12:40:30;24.80;85.50
1796;DHT22;895;48.230;11.678;2022-09-09T12:42:58;24.40;85.60
1796;DHT22;895;48.230;11.678;2022-09-09T12:45:29;24.00;86.20
1796;DHT22;895;48.230;11.678;2022-09-09T12:47:58;23.70;86.90
1796;DHT22;895;48.230;11.678;2022-09-09T12:50:29;23.30;87.60
1796;DHT22;895;48.230;11.678;2022-09-09T12:52:57;23.10;88.80
1796;DHT22;895;48.230;11.678;2022-09-09T12:55:27;23.10;90.20
1796;DHT22;895;48.230;11.678;2022-09-09T12:57:57;23.40;90.90
1796;DHT22;895;48.230;11.678;2022-09-09T13:00:25;23.80;90.80
1796;DHT22;895;48.230;11.678;2022-09-09T13:02:53;24.10;90.50
1796;DHT22;895;48.230;11.678;2022-09-09T13:05:23;24.20;90.00
1796;DHT22;895;48.230;11.678;2022-09-09T13:07:50;24.50;89.20
1796;DHT22;895;48.230;11.678;2022-09-09T13:10:24;24.20;88.40
1796;DHT22;895;48.230;11.678;2022-09-09T13:12:52;24.20;88.90
1796;DHT22;895;48.230;11.678;2022-09-09T13:15:22;24.10;88.80
1796;DHT22;895;48.230;11.678;2022-09-09T13:17:52;24.10;88.80
1796;DHT22;895;48.230;11.678;2022-09-09T13:20:20;24.10;88.70
1796;DHT22;895;48.230;11.678;2022-09-09T13:22:48;24.10;88.40
1796;DHT22;895;48.230;11.678;2022-09-09T13:25:21;24.10;88.20
1796;DHT22;895;48.230;11.678;2022-09-09T13:28:00;24.10;88.20
1796;DHT22;895;48.230;11.678;2022-09-09T13:30:31;24.20;89.30
1796;DHT22;895;48.230;11.678;2022-09-09T13:33:04;24.70;90.00
1796;DHT22;895;48.230;11.678;2022-09-09T13:35:32;24.90;87.90
1796;DHT22;895;48.230;11.678;2022-09-09T13:37:59;25.00;86.30
1796;DHT22;895;48.230;11.678;2022-09-09T13:40:33;24.90;86.00
1796;DHT22;895;48.230;11.678;2022-09-09T13:43:00;24.80;85.80
1796;DHT22;895;48.230;11.678;2022-09-09T13:45:29;24.70;85.50
1796;DHT22;895;48.230;11.678;2022-09-09T13:47:55;24.50;85.20
1796;DHT22;895;48.230;11.678;2022-09-09T13:50:24;24.40;85.10
1796;DHT22;895;48.230;11.678;2022-09-09T13:52:53;24.20;85.10
1796;DHT22;895;48.230;11.678;2022-09-09T13:55:21;24.10;85.70
1796;DHT22;895;48.230;11.678;2022-09-09T13:57:52;23.90;86.20
1796;DHT22;895;48.230;11.678;2022-09-09T14:00:19;23.90;86.20
1796;DHT22;895;48.230;11.678;2022-09-09T14:02:48;24.00;86.60
1796;DHT22;895;48.230;11.678;2022-09-09T14:05:14;24.10;87.00
1796;DHT22;895;48.230;11.678;2022-09-09T14:07:42;24.90;91.10
1796;DHT22;895;48.230;11.678;2022-09-09T14:10:10;25.50;87.80
1796;DHT22;895;48.230;11.678;2022-09-09T14:12:37;25.60;84.20
1796;DHT22;895;48.230;11.678;2022-09-09T14:15:05;25.30;82.60
1796;DHT22;895;48.230;11.678;2022-09-09T14:17:33;24.90;82.40
1796;DHT22;895;48.230;11.678;2022-09-09T14:20:02;24.50;82.40
1796;DHT22;895;48.230;11.678;2022-09-09T14:22:30;24.00;82.40
1796;DHT22;895;48.230;11.678;2022-09-09T14:24:57;23.60;82.60
1796;DHT22;895;48.230;11.678;2022-09-09T14:27:24;23.20;83.10
1796;DHT22;895;48.230;11.678;2022-09-09T14:29:51;22.80;83.20
1796;DHT22;895;48.230;11.678;2022-09-09T14:32:18;22.60;84.10
1796;DHT22;895;48.230;11.678;2022-09-09T14:34:45;22.40;84.60
1796;DHT22;895;48.230;11.678;2022-09-09T14:37:14;22.20;85.20
1796;DHT22;895;48.230;11.678;2022-09-09T14:39:41;22.20;86.00
1796;DHT22;895;48.230;11.678;2022-09-09T14:42:09;22.20;86.00
1796;DHT22;895;48.230;11.678;2022-09-09T14:44:36;22.10;86.50
1796;DHT22;895;48.230;11.678;2022-09-09T14:47:03;22.20;86.50
1796;DHT22;895;48.230;11.678;2022-09-09T14:49:30;22.10;86.10
1796;DHT22;895;48.230;11.678;2022-09-09T14:51:57;22.20;86.10
1796;DHT22;895;48.230;11.678;2022-09-09T14:54:25;22.00;85.80
1796;DHT22;895;48.230;11.678;2022-09-09T14:56:53;21.90;85.70
1796;DHT22;895;48.230;11.678;2022-09-09T14:59:20;21.80;86.00
1796;DHT22;895;48.230;11.678;2022-09-09T15:01:47;21.70;86.00
1796;DHT22;895;48.230;11.678;2022-09-09T15:04:14;21.60;86.20
1796;DHT22;895;48.230;11.678;2022-09-09T15:06:42;21.50;86.30
1796;DHT22;895;48.230;11.678;2022-09-09T15:09:13;21.40;86.60
1796;DHT22;895;48.230;11.678;2022-09-09T15:11:42;21.30;86.70
1796;DHT22;895;48.230;11.678;2022-09-09T15:14:10;21.30;87.00
1796;DHT22;895;48.230;11.678;2022-09-09T15:16:38;21.30;87.10
1796;DHT22;895;48.230;11.678;2022-09-09T15:19:05;21.20;86.90
1796;DHT22;895;48.230;11.678;2022-09-09T15:21:33;21.10;86.80
1796;DHT22;895;48.230;11.678;2022-09-09T15:24:00;21.00;87.00
1796;DHT22;895;48.230;11.678;2022-09-09T15:26:27;21.00;87.50
1796;DHT22;895;48.230;11.678;2022-09-09T15:28:57;21.00;87.80
1796;DHT22;895;48.230;11.678;2022-09-09T15:31:26;21.00;88.00
1796;DHT22;895;48.230;11.678;2022-09-09T15:33:56;21.00;88.00
1796;DHT22;895;48.230;11.678;2022-09-09T15:36:27;21.00;88.10
1796;DHT22;895;48.230;11.678;2022-09-09T15:38:55;21.00;88.00
1796;DHT22;895;48.230;11.678;2022-09-09T15:41:22;21.00;88.90
1796;DHT22;895;48.230;11.678;2022-09-09T15:43:51;21.00;88.70
1796;DHT22;895;48.230;11.678;2022-09-09T15:46:30;21.00;89.30
1796;DHT22;895;48.230;11.678;2022-09-09T15:49:02;21.40;90.60
1796;DHT22;895;48.230;11.678;2022-09-09T15:51:29;21.70;90.00
1796;DHT22;895;48.230;11.678;2022-09-09T15:53:57;21.90;89.30
1796;DHT22;895;48.230;11.678;2022-09-09T15:56:25;21.90;89.60
1796;DHT22;895;48.230;11.678;2022-09-09T15:58:53;22.40;90.90
1796;DHT22;895;48.230;11.678;2022-09-09T16:01:19;23.00;91.30
1796;DHT22;895;48.230;11.678;2022-09-09T16:03:48;23.40;90.90
1796;DHT22;895;48.230;11.678;2022-09-09T16:06:17;23.60;90.00
1796;DHT22;895;48.230;11.678;2022-09-09T16:08:45;23.60;88.40
1796;DHT22;895;48.230;11.678;2022-09-09T16:11:16;23.50;87.00
1796;DHT22;895;48.230;11.678;2022-09-09T16:13:45;23.30;86.30
1796;DHT22;895;48.230;11.678;2022-09-09T16:16:14;23.10;85.60
1796;DHT22;895;48.230;11.678;2022-09-09T16:18:43;22.90;85.70
1796;DHT22;895;48.230;11.678;2022-09-09T16:21:15;22.60;84.50
1796;DHT22;895;48.230;11.678;2022-09-09T16:23:43;22.20;84.40
1796;DHT22;895;48.230;11.678;2022-09-09T16:26:11;22.00;84.50
1796;DHT22;895;48.230;11.678;2022-09-09T16:28:39;21.70;84.70
1796;DHT22;895;48.230;11.678;2022-09-09T16:31:06;21.40;84.90